createdAt,value
2023-01-06T00:02:00.135Z,1009.194
2023-01-06T00:32:17.780Z,1008.873
2023-01-06T01:02:35.379Z,1008.703
2023-01-06T01:32:54.761Z,1008.768
2023-01-06T02:03:12.149Z,1008.6619999999999
2023-01-06T02:33:29.189Z,1008.579
2023-01-06T03:03:46.909Z,1008.3610000000001
2023-01-06T03:34:02.788Z,1008.153
2023-01-06T04:04:20.775Z,1007.8969999999999
2023-01-06T04:34:37.214Z,1007.893
2023-01-06T05:04:54.353Z,1007.7739999999999
2023-01-06T05:35:12.088Z,1007.893
2023-01-06T06:05:29.564Z,1008.096
2023-01-06T07:06:02.723Z,1008.123
2023-01-06T07:36:20.297Z,1008.049
2023-01-06T08:06:37.156Z,1008.23
2023-01-06T08:36:56.208Z,1008.2560000000001
2023-01-06T09:07:13.807Z,1008.405
2023-01-06T09:37:31.882Z,1008.665
2023-01-06T10:07:50.752Z,1008.942
2023-01-06T10:38:09.493Z,1008.584
2023-01-06T11:08:29.313Z,1008.327
2023-01-06T11:38:46.319Z,1008.043
2023-01-06T12:09:02.205Z,1008.0889999999999
2023-01-06T12:39:20.267Z,1007.943
2023-01-06T13:09:43.484Z,1008.046
2023-01-06T13:39:58.660Z,1008.0369999999999
2023-01-06T14:10:15.821Z,1008.1519999999999
2023-01-06T14:40:30.882Z,1008.1560000000001
2023-01-06T15:10:47.384Z,1008.2589999999999
2023-01-06T15:41:03.513Z,1008.1239999999999
2023-01-06T16:11:21.510Z,1008.4780000000001
2023-01-06T16:41:37.299Z,1008.387
2023-01-06T17:11:53.781Z,1008.4680000000001
2023-01-06T17:42:09.933Z,1008.6189999999999
2023-01-06T18:12:27.392Z,1008.698
2023-01-06T18:42:45.695Z,1008.9739999999999
2023-01-06T19:13:03.621Z,1008.995
2023-01-06T19:43:22.015Z,1008.962
2023-01-06T20:13:38.955Z,1008.7560000000001
2023-01-06T20:43:56.815Z,1008.573
2023-01-06T21:14:14.678Z,1008.78
2023-01-06T21:44:34.902Z,1008.7330000000001
2023-01-06T22:14:52.510Z,1008.615
2023-01-06T22:45:09.640Z,1008.676
2023-01-06T23:15:26.649Z,1008.618
2023-01-06T23:45:42.893Z,1008.497
